createdAt,value
2017-08-05T00:00:00.715Z,81.81
2017-08-05T00:02:29.071Z,81.99
2017-08-05T00:04:57.415Z,81.39
2017-08-05T00:07:25.752Z,81.82
2017-08-05T00:09:54.096Z,81.25
2017-08-05T00:12:22.420Z,81.64
2017-08-05T00:14:51.029Z,81.77
2017-08-05T00:17:19.369Z,81.42
2017-08-05T00:19:47.703Z,82.17
2017-08-05T00:22:16.058Z,82.57
2017-08-05T00:24:44.392Z,82.18
2017-08-05T00:27:12.736Z,82.28
2017-08-05T00:29:41.054Z,81.64
2017-08-05T00:32:09.649Z,81.74
2017-08-05T00:34:37.989Z,82.02
2017-08-05T00:37:06.306Z,81.89
2017-08-05T00:39:34.640Z,82.35
2017-08-05T00:42:02.967Z,81.71
2017-08-05T00:44:31.309Z,81.54
2017-08-05T00:46:59.642Z,81.42
2017-08-05T00:49:27.993Z,81.27
2017-08-05T00:51:56.344Z,81.79
2017-08-05T00:54:24.690Z,82.16
2017-08-05T00:56:53.044Z,81.84
2017-08-05T00:59:21.407Z,81.35
2017-08-05T01:01:49.870Z,80.81
2017-08-05T01:04:18.208Z,80.87
2017-08-05T01:06:46.523Z,81.13
2017-08-05T01:09:14.871Z,81.04
2017-08-05T01:11:43.205Z,81.16
2017-08-05T01:14:11.560Z,80.81
2017-08-05T01:16:39.888Z,81.34
2017-08-05T01:19:08.239Z,80.65
2017-08-05T01:21:36.570Z,80.54
2017-08-05T01:24:04.926Z,80.53
2017-08-05T01:26:33.278Z,80.68
2017-08-05T01:29:01.592Z,81.46
2017-08-05T01:31:29.937Z,80.72
2017-08-05T01:33:58.253Z,80.69
2017-08-05T01:36:26.604Z,80.99
2017-08-05T01:38:54.920Z,81.17
2017-08-05T01:41:23.288Z,81.19
2017-08-05T01:43:51.639Z,81.18
2017-08-05T01:46:19.981Z,80.79
2017-08-05T01:48:48.441Z,81.19
2017-08-05T01:51:16.774Z,80.91
2017-08-05T01:53:45.382Z,80.45
2017-08-05T01:56:13.700Z,80.93
2017-08-05T01:58:42.036Z,81.45
2017-08-05T02:01:10.412Z,81.33
2017-08-05T02:03:38.757Z,81.25
2017-08-05T02:06:07.120Z,81.11
2017-08-05T02:08:35.461Z,81.73
2017-08-05T02:11:03.821Z,81.29
2017-08-05T02:13:32.155Z,81.25
2017-08-05T02:16:00.537Z,81.11
2017-08-05T02:18:28.879Z,81.34
2017-08-05T02:20:57.225Z,82.03
2017-08-05T02:23:25.558Z,81.94
2017-08-05T02:25:53.863Z,82.07
2017-08-05T02:28:22.219Z,82.01
2017-08-05T02:30:50.562Z,81.39
2017-08-05T02:33:18.907Z,81.43
2017-08-05T02:35:47.258Z,81.34
2017-08-05T02:38:15.622Z,81.41
2017-08-05T02:40:43.990Z,81.10
2017-08-05T02:43:12.328Z,80.68
2017-08-05T02:45:40.924Z,80.66
2017-08-05T02:48:09.268Z,80.90
2017-08-05T02:50:37.599Z,80.87
2017-08-05T02:53:06.021Z,82.15
2017-08-05T02:55:34.361Z,82.33
2017-08-05T02:58:02.720Z,82.41
2017-08-05T03:01:01.953Z,82.24
2017-08-05T03:03:30.341Z,81.69
2017-08-05T03:05:58.656Z,81.33
2017-08-05T03:08:27.009Z,81.65
2017-08-05T03:10:55.368Z,82.47
2017-08-05T03:13:23.691Z,82.94
2017-08-05T03:15:52.285Z,82.50
2017-08-05T03:18:20.603Z,82.04
2017-08-05T03:20:48.914Z,82.73
2017-08-05T03:23:17.255Z,81.97
2017-08-05T03:25:45.572Z,81.58
2017-08-05T03:28:13.924Z,81.27
2017-08-05T03:30:42.243Z,82.39
2017-08-05T03:33:10.572Z,82.35
2017-08-05T03:35:38.920Z,82.78
2017-08-05T03:38:07.240Z,82.58
2017-08-05T03:40:35.576Z,83.17
2017-08-05T03:43:03.900Z,83.17
2017-08-05T03:45:32.481Z,82.97
2017-08-05T03:48:00.804Z,82.46
2017-08-05T03:50:29.129Z,82.50
2017-08-05T03:52:57.494Z,82.65
2017-08-05T03:55:25.822Z,83.16
2017-08-05T03:57:54.170Z,84.21
2017-08-05T04:00:22.483Z,83.51
2017-08-05T04:02:51.087Z,83.88
2017-08-05T04:05:19.412Z,83.50
2017-08-05T04:07:47.748Z,83.43
2017-08-05T04:10:16.093Z,83.84
2017-08-05T04:12:44.425Z,83.27
2017-08-05T04:15:12.778Z,83.89
2017-08-05T04:17:41.116Z,83.39
2017-08-05T04:20:09.723Z,83.04
2017-08-05T04:22:38.056Z,83.08
2017-08-05T04:25:06.391Z,82.92
2017-08-05T04:27:34.740Z,83.78
2017-08-05T04:30:03.083Z,84.71
2017-08-05T04:32:32.102Z,84.13
2017-08-05T04:35:00.435Z,83.79
2017-08-05T04:37:28.798Z,83.66
2017-08-05T04:39:57.145Z,84.06
2017-08-05T04:42:25.474Z,83.85
2017-08-05T04:44:53.822Z,83.67
2017-08-05T04:47:22.156Z,84.12
2017-08-05T04:49:50.523Z,84.36
2017-08-05T04:52:18.856Z,83.96
2017-08-05T04:54:47.203Z,84.38
2017-08-05T04:57:16.485Z,85.15
2017-08-05T04:59:44.812Z,84.03
2017-08-05T05:02:13.163Z,84.44
2017-08-05T05:04:41.492Z,84.74
2017-08-05T05:07:09.888Z,85.50
2017-08-05T05:09:38.216Z,85.21
2017-08-05T05:12:06.563Z,84.61
2017-08-05T05:14:34.908Z,83.95
2017-08-05T05:17:03.246Z,83.50
2017-08-05T05:19:31.584Z,82.85
2017-08-05T05:22:00.680Z,82.67
2017-08-05T05:24:29.019Z,82.42
2017-08-05T05:26:58.063Z,82.26
2017-08-05T05:29:26.739Z,81.97
2017-08-05T05:31:55.073Z,81.68
2017-08-05T05:34:23.400Z,81.44
2017-08-05T05:36:52.513Z,81.40
2017-08-05T05:39:20.872Z,81.82
2017-08-05T05:41:49.217Z,82.10
2017-08-05T05:44:17.534Z,81.16
2017-08-05T05:46:46.635Z,82.14
2017-08-05T05:49:14.978Z,81.54
2017-08-05T05:51:43.341Z,81.83
2017-08-05T05:54:11.684Z,81.75
2017-08-05T05:56:39.990Z,82.14
2017-08-05T05:59:08.756Z,81.99
2017-08-05T06:01:37.095Z,82.30
2017-08-05T06:04:05.898Z,82.15
2017-08-05T06:06:34.220Z,81.94
2017-08-05T06:09:02.558Z,81.64
2017-08-05T06:11:31.673Z,82.15
2017-08-05T06:14:00.009Z,81.54
2017-08-05T06:16:28.342Z,81.46
2017-08-05T06:18:56.672Z,82.04
2017-08-05T06:21:25.023Z,81.56
2017-08-05T06:23:53.378Z,80.91
2017-08-05T06:26:22.347Z,81.08
2017-08-05T06:28:50.679Z,80.56
2017-08-05T06:31:19.025Z,80.12
2017-08-05T06:33:47.368Z,80.50
2017-08-05T06:36:15.697Z,79.81
2017-08-05T06:38:44.056Z,79.17
2017-08-05T06:41:12.419Z,78.40
2017-08-05T06:43:41.536Z,77.74
2017-08-05T06:46:09.892Z,76.81
2017-08-05T06:48:38.232Z,77.88
2017-08-05T06:51:06.576Z,76.93
2017-08-05T06:53:34.908Z,76.96
2017-08-05T06:56:03.740Z,74.65
2017-08-05T06:58:32.072Z,75.23
2017-08-05T07:01:00.428Z,76.78
2017-08-05T07:03:28.788Z,76.66
2017-08-05T07:05:57.327Z,76.36
2017-08-05T07:08:25.686Z,75.91
2017-08-05T07:10:54.018Z,74.28
2017-08-05T07:13:22.700Z,73.63
2017-08-05T07:15:51.042Z,73.68
2017-08-05T07:18:19.376Z,73.72
2017-08-05T07:20:47.733Z,74.20
2017-08-05T07:23:16.816Z,74.68
2017-08-05T07:25:45.153Z,74.78
2017-08-05T07:28:13.485Z,75.98
2017-08-05T07:30:42.649Z,75.84
2017-08-05T07:33:10.977Z,73.65
2017-08-05T07:35:39.313Z,72.89
2017-08-05T07:38:07.668Z,73.06
2017-08-05T07:40:35.999Z,72.63
2017-08-05T07:43:05.128Z,72.48
2017-08-05T07:45:33.471Z,72.54
2017-08-05T07:48:02.173Z,71.76
2017-08-05T07:50:30.505Z,71.82
2017-08-05T07:55:34.721Z,70.90
2017-08-05T07:58:03.098Z,70.80
2017-08-05T08:00:31.824Z,70.67
2017-08-05T08:03:00.180Z,70.77
2017-08-05T08:05:28.499Z,70.42
2017-08-05T08:07:56.890Z,70.23
2017-08-05T08:10:25.232Z,69.86
2017-08-05T08:12:53.584Z,69.73
2017-08-05T08:15:21.912Z,70.33
2017-08-05T08:17:50.500Z,69.96
2017-08-05T08:20:18.827Z,69.44
2017-08-05T08:22:47.178Z,69.77
2017-08-05T08:25:15.534Z,70.23
2017-08-05T08:27:43.861Z,71.99
2017-08-05T08:30:12.212Z,71.97
2017-08-05T08:32:41.310Z,72.35
2017-08-05T08:35:10.000Z,72.80
2017-08-05T08:37:38.326Z,72.47
2017-08-05T08:40:06.653Z,72.57
2017-08-05T08:42:35.764Z,73.32
2017-08-05T08:45:04.090Z,73.88
2017-08-05T08:47:32.422Z,75.60
2017-08-05T08:50:00.764Z,77.66
2017-08-05T08:52:29.140Z,77.89
2017-08-05T08:54:57.479Z,77.59
2017-08-05T08:57:25.836Z,77.67
2017-08-05T08:59:54.183Z,78.37
2017-08-05T09:02:22.525Z,79.32
2017-08-05T09:04:50.868Z,79.79
2017-08-05T09:07:19.201Z,78.68
2017-08-05T09:09:47.971Z,78.58
2017-08-05T09:12:16.352Z,79.57
2017-08-05T09:14:44.705Z,78.87
2017-08-05T09:17:13.051Z,77.91
2017-08-05T09:19:41.382Z,78.21
2017-08-05T09:22:09.755Z,77.68
2017-08-05T09:24:38.077Z,78.10
2017-08-05T09:27:06.892Z,77.15
2017-08-05T09:29:35.235Z,76.10
2017-08-05T09:32:03.580Z,76.89
2017-08-05T09:34:31.916Z,77.74
2017-08-05T09:37:00.257Z,77.30
2017-08-05T09:39:28.613Z,76.80
2017-08-05T09:41:56.944Z,76.95
2017-08-05T09:44:25.291Z,77.40
2017-08-05T09:46:53.654Z,77.44
2017-08-05T09:49:21.983Z,77.09
2017-08-05T09:51:50.320Z,77.57
2017-08-05T09:54:18.646Z,77.06
2017-08-05T09:56:47.021Z,77.02
2017-08-05T09:59:15.363Z,76.72
2017-08-05T10:01:43.709Z,76.55
2017-08-05T10:04:12.039Z,76.92
2017-08-05T10:06:40.376Z,77.56
2017-08-05T10:09:08.734Z,77.00
2017-08-05T10:11:37.081Z,76.82
2017-08-05T10:14:05.431Z,76.81
2017-08-05T10:16:33.818Z,76.96
2017-08-05T10:19:02.576Z,76.92
2017-08-05T10:21:30.919Z,77.12
2017-08-05T10:23:59.245Z,76.59
2017-08-05T10:26:27.613Z,76.77
2017-08-05T10:28:55.943Z,76.26
2017-08-05T10:31:24.289Z,75.86
2017-08-05T10:33:52.605Z,75.67
2017-08-05T10:36:21.235Z,75.79
2017-08-05T10:38:49.573Z,75.93
2017-08-05T10:41:17.900Z,75.71
2017-08-05T10:43:46.257Z,75.47
2017-08-05T10:46:14.586Z,75.27
2017-08-05T10:48:42.939Z,75.10
2017-08-05T10:51:11.699Z,74.66
2017-08-05T10:53:40.487Z,74.04
2017-08-05T10:56:08.864Z,73.67
2017-08-05T10:58:37.196Z,73.42
2017-08-05T11:01:05.545Z,71.66
2017-08-05T11:03:34.646Z,71.00
2017-08-05T11:06:02.994Z,70.03
2017-08-05T11:08:31.340Z,69.89
2017-08-05T11:11:00.098Z,68.43
2017-08-05T11:13:28.549Z,68.85
2017-08-05T11:15:56.889Z,68.17
2017-08-05T11:18:25.238Z,68.19
2017-08-05T11:20:53.571Z,67.61
2017-08-05T11:23:21.933Z,66.75
2017-08-05T11:25:50.246Z,66.30
2017-08-05T11:28:19.084Z,66.65
2017-08-05T11:30:47.400Z,66.21
2017-08-05T11:33:15.741Z,66.25
2017-08-05T11:35:44.132Z,66.65
2017-08-05T11:38:12.461Z,66.63
2017-08-05T11:40:40.847Z,65.90
2017-08-05T11:43:09.971Z,66.16
2017-08-05T11:45:38.644Z,65.30
2017-08-05T11:48:06.981Z,64.30
2017-08-05T11:50:35.318Z,63.04
2017-08-05T11:53:03.647Z,61.49
2017-08-05T11:55:31.978Z,59.36
2017-08-05T11:58:00.341Z,60.17
2017-08-05T12:00:28.697Z,60.17
2017-08-05T12:02:57.025Z,60.29
2017-08-05T12:05:25.374Z,59.75
2017-08-05T12:07:54.726Z,59.41
2017-08-05T12:10:23.084Z,58.24
2017-08-05T12:12:51.416Z,56.93
2017-08-05T12:15:20.121Z,56.62
2017-08-05T12:17:48.462Z,57.05
2017-08-05T12:20:17.910Z,56.90
2017-08-05T12:22:46.257Z,56.67
2017-08-05T12:25:14.593Z,56.20
2017-08-05T12:27:42.932Z,55.77
2017-08-05T12:30:11.342Z,55.92
2017-08-05T12:32:39.692Z,56.23
2017-08-05T12:35:08.032Z,55.46
2017-08-05T12:37:36.382Z,55.46
2017-08-05T12:40:04.739Z,55.66
2017-08-05T12:42:33.851Z,54.75
2017-08-05T12:45:02.205Z,55.57
2017-08-05T12:47:30.535Z,55.73
2017-08-05T12:49:59.288Z,55.97
2017-08-05T12:52:27.610Z,56.19
2017-08-05T12:54:55.962Z,54.08
2017-08-05T12:57:24.295Z,53.24
2017-08-05T12:59:52.605Z,51.65
2017-08-05T13:02:20.953Z,51.22
2017-08-05T13:04:49.283Z,51.99
2017-08-05T13:07:17.642Z,50.92
2017-08-05T13:09:46.011Z,51.42
2017-08-05T13:12:14.388Z,51.48
2017-08-05T13:14:42.718Z,50.92
2017-08-05T13:17:11.031Z,50.78
2017-08-05T13:19:39.463Z,51.02
2017-08-05T13:22:07.828Z,50.76
2017-08-05T13:24:36.203Z,50.38
2017-08-05T13:27:11.815Z,50.90
2017-08-05T13:29:47.083Z,51.62
2017-08-05T13:32:16.050Z,52.68
2017-08-05T13:34:44.798Z,53.62
2017-08-05T13:37:13.651Z,52.06
2017-08-05T13:39:47.850Z,51.77
2017-08-05T13:42:16.469Z,52.00
2017-08-05T13:44:46.659Z,53.17
2017-08-05T13:47:15.893Z,52.70
2017-08-05T13:49:44.256Z,52.83
2017-08-05T13:52:12.630Z,53.46
2017-08-05T13:54:40.981Z,52.24
2017-08-05T13:57:09.734Z,52.38
2017-08-05T13:59:38.077Z,52.26
2017-08-05T14:02:06.419Z,50.62
2017-08-05T14:04:35.169Z,49.37
2017-08-05T14:07:04.273Z,49.36
2017-08-05T14:09:32.604Z,49.63
2017-08-05T14:12:01.348Z,50.37
2017-08-05T14:14:32.744Z,50.48
2017-08-05T14:17:01.451Z,49.44
2017-08-05T14:19:29.780Z,51.05
2017-08-05T14:21:58.142Z,50.37
2017-08-05T14:24:26.543Z,50.40
2017-08-05T14:26:54.867Z,50.96
2017-08-05T14:29:23.228Z,50.77
2017-08-05T14:31:51.576Z,51.28
2017-08-05T14:34:20.172Z,50.93
2017-08-05T14:36:48.506Z,52.36
2017-08-05T14:39:17.144Z,52.98
2017-08-05T14:41:45.485Z,52.58
2017-08-05T14:44:13.876Z,52.33
2017-08-05T14:46:42.236Z,52.04
2017-08-05T14:49:11.352Z,51.20
2017-08-05T14:51:39.694Z,51.89
2017-08-05T14:54:08.041Z,50.65
2017-08-05T14:56:36.360Z,50.00
2017-08-05T14:59:05.470Z,50.20
2017-08-05T15:01:33.810Z,51.13
2017-08-05T15:04:02.167Z,51.01
2017-08-05T15:06:30.541Z,50.93
2017-08-05T15:08:58.865Z,49.85
2017-08-05T15:11:27.202Z,49.36
2017-08-05T15:13:55.944Z,47.49
2017-08-05T15:16:25.055Z,48.92
2017-08-05T15:18:53.387Z,48.45
2017-08-05T15:21:22.118Z,48.78
2017-08-05T15:23:50.440Z,49.62
2017-08-05T15:26:19.670Z,50.76
2017-08-05T15:28:48.000Z,48.86
2017-08-05T15:31:16.319Z,49.08
2017-08-05T15:33:44.678Z,48.96
2017-08-05T15:36:12.995Z,49.07
2017-08-05T15:38:41.369Z,49.30
2017-08-05T15:41:09.719Z,50.02
2017-08-05T15:43:38.039Z,48.67
2017-08-05T15:46:07.143Z,48.65
2017-08-05T15:48:35.469Z,47.03
2017-08-05T15:51:04.547Z,46.76
2017-08-05T15:53:32.881Z,47.65
2017-08-05T15:56:01.240Z,47.87
2017-08-05T15:58:29.593Z,48.39
2017-08-05T16:00:57.951Z,49.55
2017-08-05T16:03:26.331Z,49.29
2017-08-05T16:05:54.661Z,50.15
2017-08-05T16:08:23.400Z,49.93
2017-08-05T16:10:51.725Z,50.47
2017-08-05T16:13:20.549Z,51.02
2017-08-05T16:15:48.894Z,50.99
2017-08-05T16:18:17.218Z,51.52
2017-08-05T16:20:46.337Z,51.53
2017-08-05T16:23:14.656Z,50.36
2017-08-05T16:25:43.044Z,50.62
2017-08-05T16:28:11.387Z,51.32
2017-08-05T16:30:40.007Z,52.41
2017-08-05T16:33:08.344Z,51.52
2017-08-05T16:35:37.103Z,52.01
2017-08-05T16:38:06.863Z,53.22
2017-08-05T16:40:35.265Z,51.68
2017-08-05T16:43:03.608Z,52.05
2017-08-05T16:45:31.932Z,52.94
2017-08-05T16:48:00.286Z,52.59
2017-08-05T16:50:28.607Z,52.36
2017-08-05T16:52:57.709Z,53.77
2017-08-05T16:55:26.056Z,53.79
2017-08-05T16:57:54.405Z,52.90
2017-08-05T17:00:22.801Z,52.30
2017-08-05T17:02:51.135Z,52.36
2017-08-05T17:05:19.498Z,51.32
2017-08-05T17:07:48.612Z,50.61
2017-08-05T17:10:16.973Z,50.92
2017-08-05T17:12:45.331Z,51.54
2017-08-05T17:15:13.668Z,51.62
2017-08-05T17:17:42.014Z,53.57
2017-08-05T17:20:11.134Z,52.99
2017-08-05T17:22:39.484Z,52.84
2017-08-05T17:25:07.846Z,53.42
2017-08-05T17:27:36.192Z,52.88
2017-08-05T17:30:04.617Z,53.17
2017-08-05T17:32:32.951Z,53.46
2017-08-05T17:35:01.319Z,53.22
2017-08-05T17:37:29.692Z,53.89
2017-08-05T17:39:58.477Z,53.64
2017-08-05T17:42:26.806Z,53.73
2017-08-05T17:44:55.144Z,54.52
2017-08-05T17:47:23.492Z,54.49
2017-08-05T17:49:52.605Z,55.44
2017-08-05T17:52:21.993Z,56.04
2017-08-05T17:54:50.326Z,55.48
2017-08-05T17:57:18.749Z,55.24
2017-08-05T17:59:47.086Z,55.10
2017-08-05T18:02:15.421Z,56.60
2017-08-05T18:04:43.772Z,55.30
2017-08-05T18:07:12.115Z,55.93
2017-08-05T18:09:40.471Z,57.11
2017-08-05T18:12:08.831Z,56.97
2017-08-05T18:14:38.895Z,57.54
2017-08-05T18:17:07.245Z,55.90
2017-08-05T18:19:45.547Z,55.98
2017-08-05T18:22:13.890Z,55.67
2017-08-05T18:24:42.240Z,56.82
2017-08-05T18:27:10.607Z,55.84
2017-08-05T18:29:38.962Z,56.04
2017-08-05T18:32:07.670Z,56.37
2017-08-05T18:34:36.714Z,56.07
2017-08-05T18:37:05.047Z,56.29
2017-08-05T18:39:33.392Z,56.89
2017-08-05T18:42:01.711Z,58.66
2017-08-05T18:44:30.104Z,59.45
2017-08-05T18:46:58.476Z,60.19
2017-08-05T18:49:26.843Z,60.87
2017-08-05T18:51:55.200Z,60.63
2017-08-05T18:54:25.704Z,61.92
2017-08-05T18:56:54.919Z,63.14
2017-08-05T18:59:23.239Z,63.39
2017-08-05T19:01:51.619Z,63.56
2017-08-05T19:04:19.961Z,64.25
2017-08-05T19:06:48.313Z,64.66
2017-08-05T19:09:16.640Z,65.22
2017-08-05T19:11:44.999Z,64.71
2017-08-05T19:14:13.350Z,65.58
2017-08-05T19:16:49.440Z,65.12
2017-08-05T19:19:19.504Z,64.91
2017-08-05T19:21:47.833Z,65.14
2017-08-05T19:24:17.465Z,64.32
2017-08-05T19:26:47.543Z,64.29
2017-08-05T19:29:16.286Z,64.79
2017-08-05T19:31:44.634Z,65.14
2017-08-05T19:34:13.663Z,65.26
2017-08-05T19:36:42.917Z,64.85
2017-08-05T19:39:12.259Z,64.73
2017-08-05T19:41:40.608Z,64.63
2017-08-05T19:44:08.951Z,64.91
2017-08-05T19:46:37.704Z,65.65
2017-08-05T19:49:06.116Z,65.66
2017-08-05T19:51:34.456Z,65.89
2017-08-05T19:54:03.853Z,66.72
2017-08-05T19:56:32.188Z,66.67
2017-08-05T19:59:00.526Z,66.74
2017-08-05T20:01:28.874Z,67.39
2017-08-05T20:03:57.186Z,67.19
2017-08-05T20:06:26.001Z,67.63
2017-08-05T20:08:54.394Z,67.28
2017-08-05T20:11:23.097Z,67.92
2017-08-05T20:13:51.442Z,68.12
2017-08-05T20:16:19.783Z,68.03
2017-08-05T20:18:48.909Z,68.15
2017-08-05T20:21:17.258Z,68.52
2017-08-05T20:23:45.618Z,68.34
2017-08-05T20:26:13.938Z,68.47
2017-08-05T20:28:42.718Z,68.02
2017-08-05T20:31:11.042Z,68.19
2017-08-05T20:33:39.369Z,69.18
2017-08-05T20:36:09.251Z,69.67
2017-08-05T20:38:37.987Z,69.21
2017-08-05T20:41:07.113Z,69.23
2017-08-05T20:43:35.446Z,70.53
2017-08-05T20:46:04.099Z,70.40
2017-08-05T20:48:32.428Z,70.13
2017-08-05T20:51:00.745Z,70.34
2017-08-05T20:53:29.083Z,71.14
2017-08-05T20:55:57.421Z,70.27
2017-08-05T20:58:25.836Z,70.30
2017-08-05T21:00:54.165Z,70.40
2017-08-05T21:03:22.513Z,71.70
2017-08-05T21:05:50.855Z,71.59
2017-08-05T21:08:19.204Z,71.66
2017-08-05T21:10:47.563Z,71.08
2017-08-05T21:13:15.919Z,71.59
2017-08-05T21:15:44.287Z,72.44
2017-08-05T21:18:13.402Z,72.35
2017-08-05T21:20:41.755Z,72.67
2017-08-05T21:23:10.114Z,72.60
2017-08-05T21:25:38.463Z,73.75
2017-08-05T21:28:06.815Z,73.56
2017-08-05T21:30:35.145Z,73.41
2017-08-05T21:33:04.571Z,73.47
2017-08-05T21:35:33.261Z,73.26
2017-08-05T21:38:02.099Z,72.92
2017-08-05T21:40:30.972Z,74.25
2017-08-05T21:42:59.703Z,73.86
2017-08-05T21:45:28.616Z,73.81
2017-08-05T21:47:57.607Z,74.09
2017-08-05T21:50:27.333Z,74.04
2017-08-05T21:52:56.163Z,75.27
2017-08-05T21:55:24.487Z,74.29
2017-08-05T21:57:52.846Z,74.19
2017-08-05T22:00:21.585Z,74.14
2017-08-05T22:02:50.682Z,74.54
2017-08-05T22:05:19.020Z,75.08
2017-08-05T22:07:47.765Z,75.27
2017-08-05T22:10:16.096Z,75.79
2017-08-05T22:12:44.429Z,75.25
2017-08-05T22:15:12.804Z,76.06
2017-08-05T22:17:41.124Z,76.58
2017-08-05T22:20:10.182Z,76.55
2017-08-05T22:22:38.519Z,76.24
2017-08-05T22:25:07.334Z,76.86
2017-08-05T22:27:35.668Z,76.27
2017-08-05T22:30:04.029Z,76.98
2017-08-05T22:32:32.380Z,77.29
2017-08-05T22:35:01.479Z,77.10
2017-08-05T22:37:29.873Z,77.11
2017-08-05T22:39:58.205Z,77.76
2017-08-05T22:42:26.561Z,77.66
2017-08-05T22:44:54.892Z,78.29
2017-08-05T22:47:24.853Z,78.13
2017-08-05T22:49:53.216Z,78.35
2017-08-05T22:52:21.586Z,78.47
2017-08-05T22:54:49.946Z,78.43
2017-08-05T22:57:19.045Z,79.07
2017-08-05T22:59:47.374Z,78.14
2017-08-05T23:02:15.736Z,78.55
2017-08-05T23:04:44.071Z,78.74
2017-08-05T23:07:13.174Z,79.67
2017-08-05T23:09:41.506Z,79.63
2017-08-05T23:12:10.286Z,79.52
2017-08-05T23:14:38.615Z,79.35
2017-08-05T23:17:06.947Z,79.36
2017-08-05T23:19:35.692Z,79.65
2017-08-05T23:22:04.044Z,79.36
2017-08-05T23:24:32.397Z,79.42
2017-08-05T23:27:00.754Z,79.71
2017-08-05T23:29:29.116Z,80.48
2017-08-05T23:31:58.221Z,79.79
2017-08-05T23:34:26.561Z,80.33
2017-08-05T23:36:54.904Z,80.28
2017-08-05T23:39:23.229Z,80.25
2017-08-05T23:41:51.578Z,80.45
2017-08-05T23:44:19.925Z,81.34
2017-08-05T23:46:48.704Z,81.35
2017-08-05T23:49:17.054Z,81.70
2017-08-05T23:51:45.377Z,81.99
2017-08-05T23:54:13.735Z,81.27
2017-08-05T23:56:42.046Z,80.75
2017-08-05T23:59:10.381Z,81.07
